sensor_id;sensor_type;location;lat;lon;timestamp;temperature;humidity
15638;DHT22;26604;53.596;10.042;2023-02-08T00:00:32;-2.10;99.90
15638;DHT22;26604;53.596;10.042;2023-02-08T00:03:00;-2.20;99.90
15638;DHT22;26604;53.596;10.042;2023-02-08T00:05:26;-2.20;99.90
15638;DHT22;26604;53.596;10.042;2023-02-08T00:07:53;-2.20;99.90
15638;DHT22;26604;53.596;10.042;2023-02-08T00:10:20;-2.30;99.90
15638;DHT22;26604;53.596;10.042;2023-02-08T00:12:46;-2.30;99.90
15638;DHT22;26604;53.596;10.042;2023-02-08T00:15:13;-2.30;99.90
15638;DHT22;26604;53.596;10.042;2023-02-08T00:17:39;-2.20;99.90
15638;DHT22;26604;53.596;10.042;2023-02-08T00:20:08;-2.30;99.90
15638;DHT22;26604;53.596;10.042;2023-02-08T00:22:35;-2.30;99.90
15638;DHT22;26604;53.596;10.042;2023-02-08T00:25:03;-2.40;99.90
15638;DHT22;26604;53.596;10.042;2023-02-08T00:27:30;-2.40;99.90
15638;DHT22;26604;53.596;10.042;2023-02-08T00:29:56;-2.40;99.90
15638;DHT22;26604;53.596;10.042;2023-02-08T00:32:23;-2.40;99.90
15638;DHT22;26604;53.596;10.042;2023-02-08T00:34:50;-2.40;99.90
15638;DHT22;26604;53.596;10.042;2023-02-08T00:37:18;-2.40;99.90
15638;DHT22;26604;53.596;10.042;2023-02-08T00:39:44;-2.40;99.90
15638;DHT22;26604;53.596;10.042;2023-02-08T00:42:11;-2.30;99.90
15638;DHT22;26604;53.596;10.042;2023-02-08T00:44:38;-2.30;99.90
15638;DHT22;26604;53.596;10.042;2023-02-08T00:47:04;-2.30;99.90
15638;DHT22;26604;53.596;10.042;2023-02-08T00:49:31;-2.40;99.90
15638;DHT22;26604;53.596;10.042;2023-02-08T00:51:58;-2.40;99.90
15638;DHT22;26604;53.596;10.042;2023-02-08T00:54:26;-2.30;99.90
15638;DHT22;26604;53.596;10.042;2023-02-08T00:56:52;-2.30;99.90
15638;DHT22;26604;53.596;10.042;2023-02-08T00:59:19;-2.30;99.90
15638;DHT22;26604;53.596;10.042;2023-02-08T01:01:45;-2.40;99.90
15638;DHT22;26604;53.596;10.042;2023-02-08T01:04:12;-2.40;99.90
15638;DHT22;26604;53.596;10.042;2023-02-08T01:06:39;-2.40;99.90
15638;DHT22;26604;53.596;10.042;2023-02-08T01:09:05;-2.40;99.90
15638;DHT22;26604;53.596;10.042;2023-02-08T01:11:34;-2.40;99.90
15638;DHT22;26604;53.596;10.042;2023-02-08T01:14:01;-2.50;99.90
15638;DHT22;26604;53.596;10.042;2023-02-08T01:16:29;-2.50;99.90
15638;DHT22;26604;53.596;10.042;2023-02-08T01:18:56;-2.50;99.90
15638;DHT22;26604;53.596;10.042;2023-02-08T01:21:25;-2.50;99.90
15638;DHT22;26604;53.596;10.042;2023-02-08T01:23:53;-2.60;99.90
15638;DHT22;26604;53.596;10.042;2023-02-08T01:26:20;-2.60;99.90
15638;DHT22;26604;53.596;10.042;2023-02-08T01:28:48;-2.60;99.90
15638;DHT22;26604;53.596;10.042;2023-02-08T01:31:16;-2.60;99.90
15638;DHT22;26604;53.596;10.042;2023-02-08T01:33:43;-2.70;99.90
15638;DHT22;26604;53.596;10.042;2023-02-08T01:36:10;-2.70;99.90
15638;DHT22;26604;53.596;10.042;2023-02-08T01:38:37;-2.70;99.90
15638;DHT22;26604;53.596;10.042;2023-02-08T01:41:04;-2.70;99.90
15638;DHT22;26604;53.596;10.042;2023-02-08T01:43:32;-2.70;99.90
15638;DHT22;26604;53.596;10.042;2023-02-08T01:46:00;-2.70;99.90
15638;DHT22;26604;53.596;10.042;2023-02-08T01:48:27;-2.70;99.90
15638;DHT22;26604;53.596;10.042;2023-02-08T01:50:57;-2.70;99.90
15638;DHT22;26604;53.596;10.042;2023-02-08T01:53:24;-2.70;99.90
15638;DHT22;26604;53.596;10.042;2023-02-08T01:55:53;-2.70;99.90
15638;DHT22;26604;53.596;10.042;2023-02-08T01:58:21;-2.70;99.90
15638;DHT22;26604;53.596;10.042;2023-02-08T02:00:48;-2.70;99.90
15638;DHT22;26604;53.596;10.042;2023-02-08T02:03:16;-2.70;99.90
15638;DHT22;26604;53.596;10.042;2023-02-08T02:05:44;-2.70;99.90
15638;DHT22;26604;53.596;10.042;2023-02-08T02:08:11;-2.70;99.90
15638;DHT22;26604;53.596;10.042;2023-02-08T02:10:39;-2.70;99.90
15638;DHT22;26604;53.596;10.042;2023-02-08T02:13:06;-2.70;99.90
15638;DHT22;26604;53.596;10.042;2023-02-08T02:15:33;-2.70;99.90
15638;DHT22;26604;53.596;10.042;2023-02-08T02:18:00;-2.70;99.90
15638;DHT22;26604;53.596;10.042;2023-02-08T02:20:32;-2.70;99.90
15638;DHT22;26604;53.596;10.042;2023-02-08T02:23:08;-2.80;99.90
15638;DHT22;26604;53.596;10.042;2023-02-08T02:33:55;-2.80;99.90
15638;DHT22;26604;53.596;10.042;2023-02-08T02:36:25;-2.80;99.90
15638;DHT22;26604;53.596;10.042;2023-02-08T02:38:58;-2.80;99.90
15638;DHT22;26604;53.596;10.042;2023-02-08T02:41:31;-2.80;99.90
15638;DHT22;26604;53.596;10.042;2023-02-08T02:44:17;-2.80;99.90
15638;DHT22;26604;53.596;10.042;2023-02-08T02:46:49;-2.80;99.90
15638;DHT22;26604;53.596;10.042;2023-02-08T02:49:21;-2.80;99.90
15638;DHT22;26604;53.596;10.042;2023-02-08T02:51:52;-2.80;99.90
15638;DHT22;26604;53.596;10.042;2023-02-08T02:54:22;-2.80;99.90
15638;DHT22;26604;53.596;10.042;2023-02-08T02:56:51;-2.80;99.90
15638;DHT22;26604;53.596;10.042;2023-02-08T02:59:19;-2.70;99.90
15638;DHT22;26604;53.596;10.042;2023-02-08T03:01:47;-2.70;99.90
15638;DHT22;26604;53.596;10.042;2023-02-08T03:04:15;-2.80;99.90
15638;DHT22;26604;53.596;10.042;2023-02-08T03:06:48;-2.70;99.90
15638;DHT22;26604;53.596;10.042;2023-02-08T03:09:30;-2.70;99.90
15638;DHT22;26604;53.596;10.042;2023-02-08T03:12:03;-2.70;99.90
15638;DHT22;26604;53.596;10.042;2023-02-08T03:14:34;-2.70;99.90
15638;DHT22;26604;53.596;10.042;2023-02-08T03:17:08;-2.70;99.90
15638;DHT22;26604;53.596;10.042;2023-02-08T03:19:39;-2.80;99.90
15638;DHT22;26604;53.596;10.042;2023-02-08T03:22:14;-2.80;99.90
15638;DHT22;26604;53.596;10.042;2023-02-08T03:24:45;-2.80;99.90
15638;DHT22;26604;53.596;10.042;2023-02-08T03:27:17;-2.80;99.90
15638;DHT22;26604;53.596;10.042;2023-02-08T03:29:47;-2.90;99.90
15638;DHT22;26604;53.596;10.042;2023-02-08T03:32:20;-2.90;99.90
15638;DHT22;26604;53.596;10.042;2023-02-08T03:34:47;-2.90;99.90
15638;DHT22;26604;53.596;10.042;2023-02-08T03:37:19;-2.90;99.90
15638;DHT22;26604;53.596;10.042;2023-02-08T03:39:47;-2.90;99.90
15638;DHT22;26604;53.596;10.042;2023-02-08T03:42:16;-2.90;99.90
15638;DHT22;26604;53.596;10.042;2023-02-08T03:44:45;-2.90;99.90
15638;DHT22;26604;53.596;10.042;2023-02-08T03:47:15;-2.90;99.90
15638;DHT22;26604;53.596;10.042;2023-02-08T03:49:43;-2.90;99.90
15638;DHT22;26604;53.596;10.042;2023-02-08T03:52:11;-3.00;99.90
15638;DHT22;26604;53.596;10.042;2023-02-08T03:54:40;-3.00;99.90
15638;DHT22;26604;53.596;10.042;2023-02-08T03:57:09;-3.00;99.90
15638;DHT22;26604;53.596;10.042;2023-02-08T03:59:39;-3.00;99.90
15638;DHT22;26604;53.596;10.042;2023-02-08T04:02:08;-3.00;99.90
15638;DHT22;26604;53.596;10.042;2023-02-08T04:04:36;-2.90;99.90
15638;DHT22;26604;53.596;10.042;2023-02-08T04:07:04;-3.00;99.90
15638;DHT22;26604;53.596;10.042;2023-02-08T04:09:31;-3.00;99.90
15638;DHT22;26604;53.596;10.042;2023-02-08T04:11:59;-3.00;99.90
15638;DHT22;26604;53.596;10.042;2023-02-08T04:14:26;-3.10;99.90
15638;DHT22;26604;53.596;10.042;2023-02-08T04:16:52;-3.00;99.90
15638;DHT22;26604;53.596;10.042;2023-02-08T04:19:19;-3.00;99.90
15638;DHT22;26604;53.596;10.042;2023-02-08T04:21:46;-3.00;99.90
15638;DHT22;26604;53.596;10.042;2023-02-08T04:24:12;-3.00;99.90
15638;DHT22;26604;53.596;10.042;2023-02-08T04:26:39;-3.00;99.90
15638;DHT22;26604;53.596;10.042;2023-02-08T04:29:07;-3.10;99.90
15638;DHT22;26604;53.596;10.042;2023-02-08T04:31:34;-3.10;99.90
15638;DHT22;26604;53.596;10.042;2023-02-08T04:34:01;-3.10;99.90
15638;DHT22;26604;53.596;10.042;2023-02-08T04:36:28;-3.20;99.90
15638;DHT22;26604;53.596;10.042;2023-02-08T04:38:55;-3.20;99.90
15638;DHT22;26604;53.596;10.042;2023-02-08T04:41:21;-3.20;99.90
15638;DHT22;26604;53.596;10.042;2023-02-08T04:43:48;-3.20;99.90
15638;DHT22;26604;53.596;10.042;2023-02-08T04:46:16;-3.30;99.90
15638;DHT22;26604;53.596;10.042;2023-02-08T04:48:45;-3.30;99.90
15638;DHT22;26604;53.596;10.042;2023-02-08T04:51:12;-3.30;99.90
15638;DHT22;26604;53.596;10.042;2023-02-08T04:53:39;-3.30;99.90
15638;DHT22;26604;53.596;10.042;2023-02-08T04:56:05;-3.30;99.90
15638;DHT22;26604;53.596;10.042;2023-02-08T04:58:32;-3.30;99.90
15638;DHT22;26604;53.596;10.042;2023-02-08T05:00:59;-3.40;99.90
15638;DHT22;26604;53.596;10.042;2023-02-08T05:03:27;-3.40;99.90
15638;DHT22;26604;53.596;10.042;2023-02-08T05:05:57;-3.40;99.90
15638;DHT22;26604;53.596;10.042;2023-02-08T05:08:24;-3.40;99.90
15638;DHT22;26604;53.596;10.042;2023-02-08T05:10:51;-3.40;99.90
15638;DHT22;26604;53.596;10.042;2023-02-08T05:13:17;-3.40;99.90
15638;DHT22;26604;53.596;10.042;2023-02-08T05:15:44;-3.40;99.90
15638;DHT22;26604;53.596;10.042;2023-02-08T05:18:11;-3.40;99.90
15638;DHT22;26604;53.596;10.042;2023-02-08T05:20:39;-3.40;99.90
15638;DHT22;26604;53.596;10.042;2023-02-08T05:23:06;-3.30;99.90
15638;DHT22;26604;53.596;10.042;2023-02-08T05:25:32;-3.30;99.90
15638;DHT22;26604;53.596;10.042;2023-02-08T05:27:59;-3.30;99.90
15638;DHT22;26604;53.596;10.042;2023-02-08T05:30:26;-3.40;99.90
15638;DHT22;26604;53.596;10.042;2023-02-08T05:32:52;-3.10;99.90
15638;DHT22;26604;53.596;10.042;2023-02-08T05:35:19;-3.30;99.90
15638;DHT22;26604;53.596;10.042;2023-02-08T05:37:47;-3.40;99.90
15638;DHT22;26604;53.596;10.042;2023-02-08T05:40:14;-3.40;99.90
15638;DHT22;26604;53.596;10.042;2023-02-08T05:42:40;-3.40;99.90
15638;DHT22;26604;53.596;10.042;2023-02-08T05:45:08;-3.40;99.90
15638;DHT22;26604;53.596;10.042;2023-02-08T05:47:35;-3.40;99.90
15638;DHT22;26604;53.596;10.042;2023-02-08T05:50:02;-3.30;99.90
15638;DHT22;26604;53.596;10.042;2023-02-08T05:52:29;-3.30;99.90
15638;DHT22;26604;53.596;10.042;2023-02-08T05:54:57;-3.30;99.90
15638;DHT22;26604;53.596;10.042;2023-02-08T05:57:23;-3.30;99.90
15638;DHT22;26604;53.596;10.042;2023-02-08T05:59:50;-3.30;99.90
15638;DHT22;26604;53.596;10.042;2023-02-08T06:02:17;-3.30;99.90
15638;DHT22;26604;53.596;10.042;2023-02-08T06:04:43;-3.30;99.90
15638;DHT22;26604;53.596;10.042;2023-02-08T06:07:10;-3.30;99.90
15638;DHT22;26604;53.596;10.042;2023-02-08T06:09:37;-3.30;99.90
15638;DHT22;26604;53.596;10.042;2023-02-08T06:12:05;-3.30;99.90
15638;DHT22;26604;53.596;10.042;2023-02-08T06:14:32;-3.30;99.90
15638;DHT22;26604;53.596;10.042;2023-02-08T06:16:59;-3.20;99.90
15638;DHT22;26604;53.596;10.042;2023-02-08T06:19:25;-3.20;99.90
15638;DHT22;26604;53.596;10.042;2023-02-08T06:21:52;-3.20;99.90
15638;DHT22;26604;53.596;10.042;2023-02-08T06:24:19;-3.20;99.90
15638;DHT22;26604;53.596;10.042;2023-02-08T06:26:45;-3.20;99.90
15638;DHT22;26604;53.596;10.042;2023-02-08T06:29:13;-3.20;99.90
15638;DHT22;26604;53.596;10.042;2023-02-08T06:31:40;-3.30;99.90
15638;DHT22;26604;53.596;10.042;2023-02-08T06:34:07;-3.30;99.90
15638;DHT22;26604;53.596;10.042;2023-02-08T06:36:33;-3.30;99.90
15638;DHT22;26604;53.596;10.042;2023-02-08T06:39:00;-3.20;99.90
15638;DHT22;26604;53.596;10.042;2023-02-08T06:41:27;-3.20;99.90
15638;DHT22;26604;53.596;10.042;2023-02-08T06:43:53;-3.20;99.90
15638;DHT22;26604;53.596;10.042;2023-02-08T06:46:24;-3.20;99.90
15638;DHT22;26604;53.596;10.042;2023-02-08T06:48:51;-3.20;99.90
15638;DHT22;26604;53.596;10.042;2023-02-08T06:51:18;-3.20;99.90
15638;DHT22;26604;53.596;10.042;2023-02-08T06:53:44;-3.10;99.90
15638;DHT22;26604;53.596;10.042;2023-02-08T06:56:11;-3.10;99.90
15638;DHT22;26604;53.596;10.042;2023-02-08T06:58:38;-3.10;99.90
15638;DHT22;26604;53.596;10.042;2023-02-08T07:01:05;-3.10;99.90
15638;DHT22;26604;53.596;10.042;2023-02-08T07:03:33;-3.10;99.90
15638;DHT22;26604;53.596;10.042;2023-02-08T07:06:00;-3.00;99.90
15638;DHT22;26604;53.596;10.042;2023-02-08T07:08:26;-3.00;99.90
15638;DHT22;26604;53.596;10.042;2023-02-08T07:10:53;-3.00;99.90
15638;DHT22;26604;53.596;10.042;2023-02-08T07:13:20;-3.00;99.90
15638;DHT22;26604;53.596;10.042;2023-02-08T07:15:46;-3.00;99.90
15638;DHT22;26604;53.596;10.042;2023-02-08T07:18:13;-2.90;99.90
15638;DHT22;26604;53.596;10.042;2023-02-08T07:20:41;-2.90;99.90
15638;DHT22;26604;53.596;10.042;2023-02-08T07:23:08;-2.90;99.90
15638;DHT22;26604;53.596;10.042;2023-02-08T07:25:34;-2.80;99.90
15638;DHT22;26604;53.596;10.042;2023-02-08T07:28:01;-2.90;99.90
15638;DHT22;26604;53.596;10.042;2023-02-08T07:30:28;-2.80;99.90
15638;DHT22;26604;53.596;10.042;2023-02-08T07:32:54;-2.80;99.90
15638;DHT22;26604;53.596;10.042;2023-02-08T07:35:21;-2.80;99.90
15638;DHT22;26604;53.596;10.042;2023-02-08T07:37:49;-2.80;99.90
15638;DHT22;26604;53.596;10.042;2023-02-08T07:40:16;-2.80;99.90
15638;DHT22;26604;53.596;10.042;2023-02-08T07:42:42;-2.70;99.90
15638;DHT22;26604;53.596;10.042;2023-02-08T07:45:09;-2.80;99.90
15638;DHT22;26604;53.596;10.042;2023-02-08T07:47:36;-2.70;99.90
15638;DHT22;26604;53.596;10.042;2023-02-08T07:50:02;-2.70;99.90
15638;DHT22;26604;53.596;10.042;2023-02-08T07:52:29;-2.70;99.90
15638;DHT22;26604;53.596;10.042;2023-02-08T07:54:57;-2.60;99.90
15638;DHT22;26604;53.596;10.042;2023-02-08T07:57:24;-2.60;99.90
15638;DHT22;26604;53.596;10.042;2023-02-08T07:59:50;-2.50;99.90
15638;DHT22;26604;53.596;10.042;2023-02-08T08:02:17;-2.50;99.90
15638;DHT22;26604;53.596;10.042;2023-02-08T08:04:44;-2.50;99.90
15638;DHT22;26604;53.596;10.042;2023-02-08T08:07:10;-2.40;99.90
15638;DHT22;26604;53.596;10.042;2023-02-08T08:09:37;-2.30;99.90
15638;DHT22;26604;53.596;10.042;2023-02-08T08:12:05;-2.30;99.90
15638;DHT22;26604;53.596;10.042;2023-02-08T08:14:32;-2.20;99.90
15638;DHT22;26604;53.596;10.042;2023-02-08T08:16:59;-2.20;99.90
15638;DHT22;26604;53.596;10.042;2023-02-08T08:19:25;-2.20;99.90
15638;DHT22;26604;53.596;10.042;2023-02-08T08:21:52;-1.40;99.90
15638;DHT22;26604;53.596;10.042;2023-02-08T08:24:19;-2.10;99.90
15638;DHT22;26604;53.596;10.042;2023-02-08T08:26:45;-2.10;99.90
15638;DHT22;26604;53.596;10.042;2023-02-08T08:29:13;-2.00;99.90
15638;DHT22;26604;53.596;10.042;2023-02-08T08:31:41;-2.00;99.90
15638;DHT22;26604;53.596;10.042;2023-02-08T08:34:08;-1.90;99.90
15638;DHT22;26604;53.596;10.042;2023-02-08T08:36:34;-1.90;99.90
15638;DHT22;26604;53.596;10.042;2023-02-08T08:39:01;-1.90;99.90
15638;DHT22;26604;53.596;10.042;2023-02-08T08:41:28;-1.80;99.90
15638;DHT22;26604;53.596;10.042;2023-02-08T08:43:55;-1.80;99.90
15638;DHT22;26604;53.596;10.042;2023-02-08T08:46:23;-1.80;99.90
15638;DHT22;26604;53.596;10.042;2023-02-08T08:48:49;-1.70;99.90
15638;DHT22;26604;53.596;10.042;2023-02-08T08:51:16;-1.70;99.90
15638;DHT22;26604;53.596;10.042;2023-02-08T08:53:43;-1.60;99.90
15638;DHT22;26604;53.596;10.042;2023-02-08T08:56:10;-1.50;99.90
15638;DHT22;26604;53.596;10.042;2023-02-08T08:58:36;-1.40;99.90
15638;DHT22;26604;53.596;10.042;2023-02-08T09:01:03;-1.40;99.90
15638;DHT22;26604;53.596;10.042;2023-02-08T09:03:31;-1.30;99.90
15638;DHT22;26604;53.596;10.042;2023-02-08T09:05:58;-1.20;99.90
15638;DHT22;26604;53.596;10.042;2023-02-08T09:08:24;-1.20;99.90
15638;DHT22;26604;53.596;10.042;2023-02-08T09:10:51;-1.10;99.90
15638;DHT22;26604;53.596;10.042;2023-02-08T09:13:18;-1.00;99.90
15638;DHT22;26604;53.596;10.042;2023-02-08T09:15:46;-1.00;99.90
15638;DHT22;26604;53.596;10.042;2023-02-08T09:18:13;-0.90;99.90
15638;DHT22;26604;53.596;10.042;2023-02-08T09:20:41;-0.90;99.90
15638;DHT22;26604;53.596;10.042;2023-02-08T09:23:08;-0.80;99.90
15638;DHT22;26604;53.596;10.042;2023-02-08T09:25:35;-0.80;99.90
15638;DHT22;26604;53.596;10.042;2023-02-08T09:28:01;-0.80;99.90
15638;DHT22;26604;53.596;10.042;2023-02-08T09:30:28;-0.70;99.90
15638;DHT22;26604;53.596;10.042;2023-02-08T09:32:55;-0.60;99.90
15638;DHT22;26604;53.596;10.042;2023-02-08T09:35:21;-0.60;99.90
15638;DHT22;26604;53.596;10.042;2023-02-08T09:37:49;-0.60;99.90
15638;DHT22;26604;53.596;10.042;2023-02-08T09:40:20;-0.60;99.90
15638;DHT22;26604;53.596;10.042;2023-02-08T09:42:48;-0.50;99.90
15638;DHT22;26604;53.596;10.042;2023-02-08T09:48:03;-0.40;99.90
15638;DHT22;26604;53.596;10.042;2023-02-08T09:50:32;-0.30;99.90
15638;DHT22;26604;53.596;10.042;2023-02-08T09:53:02;-0.30;99.90
15638;DHT22;26604;53.596;10.042;2023-02-08T09:55:31;-0.20;99.90
15638;DHT22;26604;53.596;10.042;2023-02-08T09:58:00;-0.10;99.90
15638;DHT22;26604;53.596;10.042;2023-02-08T10:00:30;0.00;99.90
15638;DHT22;26604;53.596;10.042;2023-02-08T10:02:57;0.00;99.90
15638;DHT22;26604;53.596;10.042;2023-02-08T10:05:25;0.20;99.90
15638;DHT22;26604;53.596;10.042;2023-02-08T10:07:52;0.10;99.90
15638;DHT22;26604;53.596;10.042;2023-02-08T10:10:23;0.30;99.90
15638;DHT22;26604;53.596;10.042;2023-02-08T10:12:54;0.40;99.90
15638;DHT22;26604;53.596;10.042;2023-02-08T10:15:27;0.50;99.90
15638;DHT22;26604;53.596;10.042;2023-02-08T10:18:02;0.60;99.90
15638;DHT22;26604;53.596;10.042;2023-02-08T10:20:36;0.70;99.90
15638;DHT22;26604;53.596;10.042;2023-02-08T10:23:10;0.70;99.90
15638;DHT22;26604;53.596;10.042;2023-02-08T10:25:54;0.80;99.90
15638;DHT22;26604;53.596;10.042;2023-02-08T10:28:28;0.90;99.90
15638;DHT22;26604;53.596;10.042;2023-02-08T10:30:58;0.90;99.90
15638;DHT22;26604;53.596;10.042;2023-02-08T10:33:30;0.90;99.90
15638;DHT22;26604;53.596;10.042;2023-02-08T10:35:57;1.00;99.90
15638;DHT22;26604;53.596;10.042;2023-02-08T10:38:24;1.10;99.90
15638;DHT22;26604;53.596;10.042;2023-02-08T10:40:54;1.10;99.90
15638;DHT22;26604;53.596;10.042;2023-02-08T10:43:23;1.00;99.90
15638;DHT22;26604;53.596;10.042;2023-02-08T10:45:55;1.00;99.90
15638;DHT22;26604;53.596;10.042;2023-02-08T10:48:32;1.20;99.90
15638;DHT22;26604;53.596;10.042;2023-02-08T10:50:59;1.10;99.90
15638;DHT22;26604;53.596;10.042;2023-02-08T10:53:26;1.20;99.90
15638;DHT22;26604;53.596;10.042;2023-02-08T10:55:54;1.20;99.90
15638;DHT22;26604;53.596;10.042;2023-02-08T10:58:23;1.30;99.90
15638;DHT22;26604;53.596;10.042;2023-02-08T11:00:50;1.30;99.90
15638;DHT22;26604;53.596;10.042;2023-02-08T11:03:20;1.30;99.90
15638;DHT22;26604;53.596;10.042;2023-02-08T11:05:47;1.40;99.90
15638;DHT22;26604;53.596;10.042;2023-02-08T11:08:14;1.50;99.90
15638;DHT22;26604;53.596;10.042;2023-02-08T11:10:44;1.50;99.90
15638;DHT22;26604;53.596;10.042;2023-02-08T11:13:17;1.50;99.90
15638;DHT22;26604;53.596;10.042;2023-02-08T11:15:46;1.60;99.90
15638;DHT22;26604;53.596;10.042;2023-02-08T11:18:21;1.60;99.90
15638;DHT22;26604;53.596;10.042;2023-02-08T11:20:49;1.60;99.90
15638;DHT22;26604;53.596;10.042;2023-02-08T11:23:18;1.70;99.90
15638;DHT22;26604;53.596;10.042;2023-02-08T11:25:45;1.70;99.90
15638;DHT22;26604;53.596;10.042;2023-02-08T11:28:21;1.80;99.90
15638;DHT22;26604;53.596;10.042;2023-02-08T11:30:53;1.80;99.90
15638;DHT22;26604;53.596;10.042;2023-02-08T11:33:20;1.90;99.90
15638;DHT22;26604;53.596;10.042;2023-02-08T11:35:51;1.90;99.90
15638;DHT22;26604;53.596;10.042;2023-02-08T11:38:19;2.00;99.90
15638;DHT22;26604;53.596;10.042;2023-02-08T11:40:51;2.10;99.90
15638;DHT22;26604;53.596;10.042;2023-02-08T11:43:21;2.20;99.90
15638;DHT22;26604;53.596;10.042;2023-02-08T11:45:48;2.20;99.90
15638;DHT22;26604;53.596;10.042;2023-02-08T11:48:19;2.30;99.90
15638;DHT22;26604;53.596;10.042;2023-02-08T11:50:51;2.40;99.90
15638;DHT22;26604;53.596;10.042;2023-02-08T11:53:19;2.50;99.90
15638;DHT22;26604;53.596;10.042;2023-02-08T11:56:00;2.60;99.90
15638;DHT22;26604;53.596;10.042;2023-02-08T11:58:28;2.60;99.90
15638;DHT22;26604;53.596;10.042;2023-02-08T12:00:59;2.70;99.90
15638;DHT22;26604;53.596;10.042;2023-02-08T12:03:27;2.80;99.90
15638;DHT22;26604;53.596;10.042;2023-02-08T12:06:04;2.80;99.90
15638;DHT22;26604;53.596;10.042;2023-02-08T12:08:38;2.90;99.90
15638;DHT22;26604;53.596;10.042;2023-02-08T12:11:11;2.90;99.90
15638;DHT22;26604;53.596;10.042;2023-02-08T12:13:49;3.00;99.90
15638;DHT22;26604;53.596;10.042;2023-02-08T12:16:25;3.10;99.90
15638;DHT22;26604;53.596;10.042;2023-02-08T12:19:04;3.10;99.90
15638;DHT22;26604;53.596;10.042;2023-02-08T12:21:39;3.20;99.90
15638;DHT22;26604;53.596;10.042;2023-02-08T12:24:08;3.30;99.90
15638;DHT22;26604;53.596;10.042;2023-02-08T12:26:47;3.40;99.90
15638;DHT22;26604;53.596;10.042;2023-02-08T12:29:25;3.40;99.90
15638;DHT22;26604;53.596;10.042;2023-02-08T12:32:02;3.50;99.90
15638;DHT22;26604;53.596;10.042;2023-02-08T12:34:34;3.50;99.90
15638;DHT22;26604;53.596;10.042;2023-02-08T12:37:09;3.60;99.90
15638;DHT22;26604;53.596;10.042;2023-02-08T12:39:57;3.60;99.90
15638;DHT22;26604;53.596;10.042;2023-02-08T12:42:46;3.70;99.90
15638;DHT22;26604;53.596;10.042;2023-02-08T12:45:21;3.70;99.90
15638;DHT22;26604;53.596;10.042;2023-02-08T12:47:52;3.70;99.90
15638;DHT22;26604;53.596;10.042;2023-02-08T12:50:23;3.70;99.90
15638;DHT22;26604;53.596;10.042;2023-02-08T12:52:53;3.80;99.90
15638;DHT22;26604;53.596;10.042;2023-02-08T12:55:22;3.80;99.90
15638;DHT22;26604;53.596;10.042;2023-02-08T12:57:51;3.90;99.90
15638;DHT22;26604;53.596;10.042;2023-02-08T13:00:21;3.90;99.90
15638;DHT22;26604;53.596;10.042;2023-02-08T13:02:49;3.90;99.90
15638;DHT22;26604;53.596;10.042;2023-02-08T13:05:22;3.90;99.90
15638;DHT22;26604;53.596;10.042;2023-02-08T13:07:50;3.90;99.90
15638;DHT22;26604;53.596;10.042;2023-02-08T13:10:21;3.90;99.90
15638;DHT22;26604;53.596;10.042;2023-02-08T13:12:51;4.00;99.90
15638;DHT22;26604;53.596;10.042;2023-02-08T13:15:23;4.10;99.90
15638;DHT22;26604;53.596;10.042;2023-02-08T13:17:52;4.20;99.90
15638;DHT22;26604;53.596;10.042;2023-02-08T13:20:25;4.20;99.90
15638;DHT22;26604;53.596;10.042;2023-02-08T13:22:53;4.30;99.90
15638;DHT22;26604;53.596;10.042;2023-02-08T13:25:22;4.30;99.90
15638;DHT22;26604;53.596;10.042;2023-02-08T13:27:51;4.30;99.90
15638;DHT22;26604;53.596;10.042;2023-02-08T13:30:19;4.40;99.90
15638;DHT22;26604;53.596;10.042;2023-02-08T13:32:47;4.40;99.90
15638;DHT22;26604;53.596;10.042;2023-02-08T13:35:16;4.40;99.90
15638;DHT22;26604;53.596;10.042;2023-02-08T13:37:48;4.50;99.90
15638;DHT22;26604;53.596;10.042;2023-02-08T13:40:17;4.50;99.90
15638;DHT22;26604;53.596;10.042;2023-02-08T13:42:45;4.60;99.90
15638;DHT22;26604;53.596;10.042;2023-02-08T13:45:21;4.60;99.90
15638;DHT22;26604;53.596;10.042;2023-02-08T13:47:54;4.60;99.90
15638;DHT22;26604;53.596;10.042;2023-02-08T13:53:06;4.70;99.90
15638;DHT22;26604;53.596;10.042;2023-02-08T14:01:16;4.70;99.90
15638;DHT22;26604;53.596;10.042;2023-02-08T14:03:45;4.70;99.90
15638;DHT22;26604;53.596;10.042;2023-02-08T14:06:31;4.70;99.90
15638;DHT22;26604;53.596;10.042;2023-02-08T14:09:02;4.70;99.90
15638;DHT22;26604;53.596;10.042;2023-02-08T14:11:35;4.70;99.90
15638;DHT22;26604;53.596;10.042;2023-02-08T14:14:05;4.70;99.90
15638;DHT22;26604;53.596;10.042;2023-02-08T14:16:32;4.70;99.90
15638;DHT22;26604;53.596;10.042;2023-02-08T14:19:02;4.70;99.90
15638;DHT22;26604;53.596;10.042;2023-02-08T14:21:31;4.70;99.90
15638;DHT22;26604;53.596;10.042;2023-02-08T14:23:59;4.70;99.90
15638;DHT22;26604;53.596;10.042;2023-02-08T14:26:27;4.70;99.90
15638;DHT22;26604;53.596;10.042;2023-02-08T14:28:54;4.70;99.90
15638;DHT22;26604;53.596;10.042;2023-02-08T14:31:21;5.00;99.90
15638;DHT22;26604;53.596;10.042;2023-02-08T14:34:01;4.70;99.90
15638;DHT22;26604;53.596;10.042;2023-02-08T14:36:29;4.70;99.90
15638;DHT22;26604;53.596;10.042;2023-02-08T14:41:51;4.70;99.90
15638;DHT22;26604;53.596;10.042;2023-02-08T14:50:10;4.70;99.90
15638;DHT22;26604;53.596;10.042;2023-02-08T14:52:38;4.60;99.90
15638;DHT22;26604;53.596;10.042;2023-02-08T14:55:06;4.60;99.90
15638;DHT22;26604;53.596;10.042;2023-02-08T14:57:38;4.60;99.90
15638;DHT22;26604;53.596;10.042;2023-02-08T15:00:06;4.60;99.90
15638;DHT22;26604;53.596;10.042;2023-02-08T15:02:33;4.60;99.90
15638;DHT22;26604;53.596;10.042;2023-02-08T15:05:05;4.60;99.90
15638;DHT22;26604;53.596;10.042;2023-02-08T15:07:33;4.50;99.90
15638;DHT22;26604;53.596;10.042;2023-02-08T15:10:01;4.50;99.90
15638;DHT22;26604;53.596;10.042;2023-02-08T15:12:28;4.50;99.90
15638;DHT22;26604;53.596;10.042;2023-02-08T15:14:56;4.40;99.90
15638;DHT22;26604;53.596;10.042;2023-02-08T15:17:27;4.40;99.90
15638;DHT22;26604;53.596;10.042;2023-02-08T15:19:55;4.30;99.90
15638;DHT22;26604;53.596;10.042;2023-02-08T15:22:32;4.30;99.90
15638;DHT22;26604;53.596;10.042;2023-02-08T15:25:00;4.20;99.90
15638;DHT22;26604;53.596;10.042;2023-02-08T15:27:30;4.20;99.90
15638;DHT22;26604;53.596;10.042;2023-02-08T15:29:57;4.20;99.90
15638;DHT22;26604;53.596;10.042;2023-02-08T15:32:25;4.20;99.90
15638;DHT22;26604;53.596;10.042;2023-02-08T15:34:53;4.10;99.90
15638;DHT22;26604;53.596;10.042;2023-02-08T15:37:20;4.10;99.90
15638;DHT22;26604;53.596;10.042;2023-02-08T15:39:49;4.00;99.90
15638;DHT22;26604;53.596;10.042;2023-02-08T15:42:17;3.90;99.90
15638;DHT22;26604;53.596;10.042;2023-02-08T15:44:44;3.90;99.90
15638;DHT22;26604;53.596;10.042;2023-02-08T15:47:12;3.80;99.90
15638;DHT22;26604;53.596;10.042;2023-02-08T15:49:41;3.70;99.90
15638;DHT22;26604;53.596;10.042;2023-02-08T15:52:10;3.70;99.90
15638;DHT22;26604;53.596;10.042;2023-02-08T15:54:40;3.50;99.90
15638;DHT22;26604;53.596;10.042;2023-02-08T15:57:16;3.50;99.90
15638;DHT22;26604;53.596;10.042;2023-02-08T15:59:45;3.40;99.90